Fisher, Illinois
Current Conditions -  °F | °C
As of 8:10 AM on Thursday 27 Nov 2014 (Local Time) from KTIP Reporting Station
Haze Haze  
Wind Chill: 14°   Ceiling: 1000
Heat Index: 26°   Visibility: 4mi
Dew Point: 23°   Wind: 15mph
Humidity: 86%   Direction: 310°NW
Pressure: 30.34"   Gusts: 22mph
Location:  40.31°N, 88.35°W
Report Text: KTIP 271410Z AUTO 31013G19KT 4SM BR OVC010 M03/M05 A3034 RMK AO2 T10311052
Loading
Personal Weather Stations






























Interactive Weather Map New forecast layout! Learn more

10-Day Weather Forecast

Advertisements
Track Severe Weather on mobile